Time;durP1;ratioP1;P1;durP2;ratioP2;P2;SDS_P1;SDS_P2;PMS_P1;PMS_P2;Temp;Humidity;BMP_temperature;BMP_pressure;BME280_temperature;BME280_humidity;BME280_pressure;Samples;Min_cycle;Max_cycle;Signal;HPM_P1;HPM_P2
2021/11/13 00:00:52;;;;;;;17.17;11.07;;;;;;;8.19;100.00;96342.56;4991349;28;20076;-56
2021/11/13 00:03:21;;;;;;;18.25;10.75;;;;;;;8.36;100.00;96335.81;5003128;28;20061;-58
2021/11/13 00:05:49;;;;;;;17.73;10.52;;;;;;;8.24;100.00;96329.84;5002667;28;20070;-60
2021/11/13 00:08:19;;;;;;;21.75;11.07;;;;;;;8.43;100.00;96323.00;4989960;28;20065;-57
2021/11/13 00:10:48;;;;;;;20.23;11.50;;;;;;;8.26;100.00;96320.06;4991453;28;20078;-56
2021/11/13 00:13:16;;;;;;;19.23;11.65;;;;;;;8.56;100.00;96329.69;4994782;28;20085;-59
2021/11/13 00:15:45;;;;;;;23.90;12.15;;;;;;;8.75;100.00;96321.00;5002062;28;20069;-60
2021/11/13 00:18:13;;;;;;;21.92;12.00;;;;;;;8.39;100.00;96314.56;5000157;28;20061;-58
2021/11/13 00:20:42;;;;;;;20.08;12.13;;;;;;;8.37;100.00;96318.28;5001162;28;20073;-57
2021/11/13 00:23:11;;;;;;;20.45;12.00;;;;;;;8.45;100.00;96316.66;4993468;28;20202;-58
2021/11/13 00:25:41;;;;;;;19.23;11.70;;;;;;;8.44;100.00;96316.81;4990917;28;20096;-60
2021/11/13 00:28:09;;;;;;;21.48;12.40;;;;;;;8.32;100.00;96316.03;4994075;28;20090;-60
2021/11/13 00:30:41;;;;;;;17.70;11.82;;;;;;;7.87;100.00;96319.06;4996145;28;20088;-57
2021/11/13 00:33:10;;;;;;;17.83;11.43;;;;;;;7.79;100.00;96329.41;4990065;28;20511;-57
2021/11/13 00:35:38;;;;;;;19.20;11.63;;;;;;;7.80;100.00;96333.66;4990174;28;20539;-56
2021/11/13 00:38:07;;;;;;;17.90;11.73;;;;;;;8.02;100.00;96330.88;4994807;28;20080;-57
2021/11/13 00:40:36;;;;;;;18.42;11.60;;;;;;;7.92;100.00;96323.94;4998868;28;20089;-58
2021/11/13 00:43:05;;;;;;;20.20;11.77;;;;;;;8.24;100.00;96319.34;5002336;28;20077;-57
2021/11/13 00:45:34;;;;;;;20.77;11.73;;;;;;;8.38;100.00;96312.91;5002174;28;20062;-54
2021/11/13 00:48:02;;;;;;;20.45;11.40;;;;;;;8.16;100.00;96318.38;4992213;28;20485;-56
2021/11/13 00:50:31;;;;;;;22.95;12.40;;;;;;;8.26;100.00;96314.81;4991935;28;20073;-56
2021/11/13 00:52:59;;;;;;;21.13;11.82;;;;;;;7.89;100.00;96318.94;4992909;28;20074;-57
2021/11/13 00:55:28;;;;;;;23.70;12.82;;;;;;;7.92;100.00;96313.44;4997581;28;20078;-55
2021/11/13 00:57:57;;;;;;;19.17;12.57;;;;;;;7.90;100.00;96305.66;4999733;28;20648;-59
2021/11/13 01:00:27;;;;;;;24.17;12.68;;;;;;;8.23;100.00;96307.19;5002318;28;20062;-60
2021/11/13 01:02:56;;;;;;;20.65;12.90;;;;;;;7.98;100.00;96312.88;4997831;28;20491;-54
2021/11/13 01:05:24;;;;;;;27.13;13.18;;;;;;;7.90;100.00;96310.09;5002220;28;20057;-58
2021/11/13 01:07:52;;;;;;;27.25;12.57;;;;;;;7.76;100.00;96311.28;4994912;28;20806;-59
2021/11/13 01:10:21;;;;;;;21.70;12.75;;;;;;;8.03;100.00;96302.84;4993423;28;20082;-54
2021/11/13 01:12:51;;;;;;;28.17;13.48;;;;;;;8.21;100.00;96305.66;4990647;28;20093;-55
2021/11/13 01:15:20;;;;;;;27.47;14.07;;;;;;;8.53;100.00;96300.22;5002020;28;20073;-54
2021/11/13 01:17:51;;;;;;;22.55;13.70;;;;;;;8.51;100.00;96307.41;4996218;28;20532;-58
2021/11/13 01:20:21;;;;;;;25.08;13.57;;;;;;;7.86;100.00;96301.66;4989793;28;20139;-53
2021/11/13 01:22:50;;;;;;;25.85;14.23;;;;;;;7.63;100.00;96306.22;4994656;28;20122;-57
2021/11/13 01:25:19;;;;;;;22.08;13.43;;;;;;;7.88;100.00;96304.13;4993348;28;20085;-58
2021/11/13 01:27:47;;;;;;;27.70;13.63;;;;;;;7.71;100.00;96300.31;4997297;28;20516;-56
2021/11/13 01:30:16;;;;;;;29.10;14.68;;;;;;;7.78;100.00;96302.31;5003180;28;20068;-58
2021/11/13 01:32:45;;;;;;;32.05;15.40;;;;;;;7.86;100.00;96291.16;4985135;28;20066;-57
2021/11/13 01:35:16;;;;;;;30.30;14.18;;;;;;;8.06;100.00;96286.81;4971861;28;20085;-57
2021/11/13 01:37:45;;;;;;;22.23;13.95;;;;;;;8.09;100.00;96278.66;4977926;28;20094;-59
2021/11/13 01:40:17;;;;;;;30.98;14.80;;;;;;;8.24;100.00;96281.75;4980196;28;20526;-57
2021/11/13 01:42:46;;;;;;;28.77;15.00;;;;;;;8.51;100.00;96271.44;4986751;28;20073;-54
2021/11/13 01:45:16;;;;;;;28.20;14.25;;;;;;;8.29;100.00;96272.50;4989331;28;20066;-58
2021/11/13 01:47:45;;;;;;;29.10;14.20;;;;;;;8.34;100.00;96279.97;4994959;28;20081;-58
2021/11/13 01:50:17;;;;;;;26.98;15.00;;;;;;;8.13;100.00;96276.59;4992802;28;20554;-58
2021/11/13 01:52:46;;;;;;;30.42;15.68;;;;;;;8.27;100.00;96276.22;4987813;28;20085;-59
2021/11/13 01:55:15;;;;;;;29.65;15.32;;;;;;;8.05;100.00;96266.75;4992151;28;20078;-54
2021/11/13 01:57:48;;;;;;;53.10;17.52;;;;;;;7.54;100.00;96272.91;4994973;28;20077;-58
2021/11/13 02:00:19;;;;;;;55.10;17.25;;;;;;;7.44;100.00;96272.03;4995535;28;20061;-55
2021/11/13 02:02:48;;;;;;;42.88;18.02;;;;;;;7.72;100.00;96275.75;4994501;28;20069;-58
2021/11/13 02:05:17;;;;;;;35.30;17.23;;;;;;;7.99;100.00;96262.88;5003975;28;20068;-60
2021/11/13 02:07:46;;;;;;;41.28;17.60;;;;;;;7.96;100.00;96270.19;5002838;28;20447;-58
2021/11/13 02:10:16;;;;;;;32.03;17.52;;;;;;;8.07;100.00;96270.91;4988407;28;20082;-59
2021/11/13 02:12:45;;;;;;;48.45;18.23;;;;;;;7.46;100.00;96275.34;4997402;28;20068;-57
2021/11/13 02:15:14;;;;;;;58.97;18.55;;;;;;;8.28;100.00;96270.81;4992569;28;20539;-56
2021/11/13 02:17:42;;;;;;;38.83;17.50;;;;;;;8.00;100.00;96271.59;4996797;28;20070;-58
2021/11/13 02:20:31;;;;;;;66.72;17.38;;;;;;;8.06;100.00;96273.69;5000303;28;20076;-60
2021/11/13 02:23:03;;;;;;;38.10;18.20;;;;;;;8.30;100.00;96271.53;4999790;28;20053;-60
2021/11/13 02:25:33;;;;;;;47.83;17.70;;;;;;;8.10;100.00;96272.44;4995080;28;20065;-60
2021/11/13 02:28:02;;;;;;;36.38;17.10;;;;;;;8.13;100.00;96266.94;4998046;28;20065;-60
2021/11/13 02:30:31;;;;;;;48.72;17.23;;;;;;;8.07;100.00;96275.34;4993478;28;20062;-58
2021/11/13 02:32:59;;;;;;;52.00;17.40;;;;;;;7.88;100.00;96281.38;5017244;28;20073;-58
2021/11/13 02:35:32;;;;;;;49.80;17.40;;;;;;;7.65;100.00;96283.31;5003237;28;20338;-58
2021/11/13 02:38:10;;;;;;;35.85;16.05;;;;;;;7.94;100.00;96278.19;4996440;28;20064;-59
2021/11/13 02:40:39;;;;;;;42.88;18.63;;;;;;;7.84;100.00;96277.31;5002801;28;20469;-56
2021/11/13 02:43:08;;;;;;;42.25;18.00;;;;;;;7.82;100.00;96279.25;4999137;28;20077;-59
2021/11/13 02:45:37;;;;;;;46.40;19.80;;;;;;;7.94;100.00;96275.56;5006153;28;20073;-60
2021/11/13 02:48:07;;;;;;;40.28;19.08;;;;;;;8.09;100.00;96273.41;4997591;28;20530;-58
2021/11/13 02:50:38;;;;;;;54.58;20.88;;;;;;;7.88;100.00;96277.88;5003027;28;20072;-60
2021/11/13 02:53:12;;;;;;;31.88;18.23;;;;;;;7.91;100.00;96277.63;5005363;28;20065;-58
2021/11/13 02:55:41;;;;;;;36.58;19.20;;;;;;;7.38;100.00;96281.25;4991804;28;20532;-59
2021/11/13 02:58:09;;;;;;;40.67;19.38;;;;;;;7.36;100.00;96283.16;4999159;28;20142;-57
2021/11/13 03:00:39;;;;;;;28.90;17.50;;;;;;;7.49;100.00;96283.78;4993513;28;20081;-60
2021/11/13 03:03:07;;;;;;;32.47;17.55;;;;;;;7.52;100.00;96286.16;4996281;28;20053;-57
2021/11/13 03:05:46;;;;;;;33.03;18.30;;;;;;;7.48;100.00;96286.56;4991921;28;20050;-60
2021/11/13 03:08:20;;;;;;;30.02;16.95;;;;;;;7.77;100.00;96286.69;4998821;28;20549;-57
2021/11/13 03:10:49;;;;;;;37.85;18.08;;;;;;;7.56;100.00;96284.94;4994475;28;20081;-55
2021/11/13 03:13:18;;;;;;;32.33;17.02;;;;;;;7.55;100.00;96288.53;5002386;28;20084;-55
2021/11/13 03:15:47;;;;;;;50.47;17.42;;;;;;;7.35;100.00;96295.44;5004311;28;20088;-57
2021/11/13 03:18:15;;;;;;;39.28;19.35;;;;;;;7.66;100.00;96290.22;4999542;28;20073;-56
2021/11/13 03:20:46;;;;;;;64.05;18.40;;;;;;;7.35;100.00;96292.81;5005272;28;20114;-56
2021/11/13 03:23:15;;;;;;;54.30;18.33;;;;;;;7.54;100.00;96291.28;4999353;28;20626;-53
2021/11/13 03:25:49;;;;;;;32.92;16.35;;;;;;;7.22;100.00;96286.94;4992302;28;20088;-54
2021/11/13 03:28:18;;;;;;;27.67;16.17;;;;;;;7.14;100.00;96287.56;5000590;28;20469;-57
2021/11/13 03:30:47;;;;;;;40.22;16.30;;;;;;;7.04;100.00;96288.47;5005355;28;20072;-58
2021/11/13 03:33:15;;;;;;;34.20;17.23;;;;;;;7.57;100.00;96286.59;4999347;28;20068;-58
2021/11/13 03:35:46;;;;;;;38.42;17.35;;;;;;;7.72;100.00;96273.97;5003279;28;20543;-59
2021/11/13 03:38:16;;;;;;;38.30;18.17;;;;;;;7.56;100.00;96276.22;4990828;28;20161;-56
2021/11/13 03:40:46;;;;;;;;;;;;;;;7.30;100.00;96283.69;4997206;28;20100;-55
2021/11/13 03:43:14;;;;;;;43.83;16.02;;;;;;;6.98;100.00;96276.69;4996309;28;20067;-59
2021/11/13 03:45:45;;;;;;;41.20;17.77;;;;;;;7.03;100.00;96279.78;4994745;28;20532;-57
2021/11/13 03:48:13;;;;;;;32.90;17.13;;;;;;;7.51;100.00;96265.31;4996783;28;20066;-51
2021/11/13 03:50:42;;;;;;;36.90;17.73;;;;;;;7.40;100.00;96274.09;5003750;28;20658;-54
2021/11/13 03:53:13;;;;;;;28.17;16.92;;;;;;;7.45;100.00;96268.44;4996184;28;20070;-54
2021/11/13 03:55:41;;;;;;;35.10;16.88;;;;;;;7.30;100.00;96273.19;4992169;28;20085;-56
2021/11/13 03:58:10;;;;;;;31.70;18.35;;;;;;;7.48;100.00;96274.25;4999731;28;20424;-55
2021/11/13 04:00:40;;;;;;;32.67;16.63;;;;;;;7.63;100.00;96273.91;4992834;28;20571;-55
2021/11/13 04:03:08;;;;;;;31.70;17.50;;;;;;;8.05;100.00;96274.63;4993526;28;20535;-56
2021/11/13 04:05:37;;;;;;;31.00;17.90;;;;;;;7.72;100.00;96281.84;5005332;28;20065;-57
2021/11/13 04:08:05;;;;;;;31.00;17.77;;;;;;;7.45;100.00;96297.31;4994598;28;20061;-56
2021/11/13 04:10:36;;;;;;;36.20;16.80;;;;;;;7.53;100.00;96293.06;5002105;28;20108;-57
2021/11/13 04:13:05;;;;;;;31.65;17.50;;;;;;;7.01;100.00;96297.41;4992759;28;20423;-57
2021/11/13 04:15:34;;;;;;;27.73;16.23;;;;;;;7.55;100.00;96303.44;5001119;28;20066;-59
2021/11/13 04:18:02;;;;;;;27.20;16.45;;;;;;;7.41;100.00;96312.47;4990629;28;20070;-60
2021/11/13 04:20:31;;;;;;;28.50;16.88;;;;;;;7.60;100.00;96303.88;4995531;28;20110;-53
2021/11/13 04:23:00;;;;;;;32.72;16.77;;;;;;;7.54;100.00;96299.16;4993948;28;20066;-57
2021/11/13 04:25:28;;;;;;;27.23;17.15;;;;;;;7.43;100.00;96322.81;4999550;28;20092;-57
2021/11/13 04:27:58;;;;;;;29.35;16.35;;;;;;;7.16;100.00;96324.19;5002805;28;20061;-55
2021/11/13 04:30:27;;;;;;;30.45;17.08;;;;;;;7.05;100.00;96332.06;4992808;28;20068;-56
2021/11/13 04:32:55;;;;;;;29.23;16.35;;;;;;;7.07;100.00;96328.38;4998619;28;20062;-56
2021/11/13 04:35:35;;;;;;;33.35;16.58;;;;;;;6.79;100.00;96326.34;4989935;28;20073;-56
2021/11/13 04:38:03;;;;;;;30.23;16.83;;;;;;;6.84;100.00;96330.25;4988969;28;20058;-55
2021/11/13 04:40:35;;;;;;;31.52;17.05;;;;;;;6.77;100.00;96329.09;4999933;28;20643;-58
2021/11/13 04:43:05;;;;;;;31.38;17.83;;;;;;;7.24;100.00;96328.78;4994309;28;20323;-57
2021/11/13 04:45:34;;;;;;;39.72;18.27;;;;;;;7.16;100.00;96325.94;5003537;28;20073;-57
2021/11/13 04:48:03;;;;;;;33.45;16.90;;;;;;;7.20;100.00;96328.22;4991634;28;20057;-56
2021/11/13 04:50:33;;;;;;;35.95;16.55;;;;;;;7.15;100.00;96332.97;4992607;28;20066;-59
2021/11/13 04:53:02;;;;;;;39.20;17.55;;;;;;;7.14;100.00;96320.84;5007541;28;20065;-60
2021/11/13 04:55:31;;;;;;;37.70;18.58;;;;;;;7.12;100.00;96331.47;5003473;28;20141;-55
2021/11/13 04:58:04;;;;;;;31.80;16.95;;;;;;;7.20;100.00;96333.44;4999019;28;20215;-57
2021/11/13 05:00:33;;;;;;;44.58;17.65;;;;;;;7.13;100.00;96334.91;4994688;28;20077;-59
2021/11/13 05:03:04;;;;;;;41.88;17.83;;;;;;;6.80;100.00;96334.06;4987988;28;20073;-57
2021/11/13 05:05:32;;;;;;;43.47;18.52;;;;;;;6.90;100.00;96336.78;4990130;28;20061;-58
2021/11/13 05:08:01;;;;;;;45.35;19.00;;;;;;;7.31;100.00;96328.13;4987767;28;20062;-56
2021/11/13 05:10:29;;;;;;;35.97;17.92;;;;;;;7.12;100.00;96328.00;4995707;28;20524;-57
2021/11/13 05:12:58;;;;;;;30.20;17.38;;;;;;;7.05;100.00;96330.28;4990242;28;20093;-55
2021/11/13 05:15:28;;;;;;;35.58;17.33;;;;;;;7.07;100.00;96330.16;4981385;28;20078;-53
2021/11/13 05:17:56;;;;;;;31.95;16.95;;;;;;;6.90;100.00;96337.63;4973985;28;20069;-58
2021/11/13 05:20:24;;;;;;;33.80;18.17;;;;;;;6.75;100.00;96336.25;4980805;28;20519;-55
2021/11/13 05:22:53;;;;;;;42.03;18.63;;;;;;;6.78;100.00;96341.25;4995663;28;20094;-57
2021/11/13 05:25:23;;;;;;;30.98;16.23;;;;;;;6.45;100.00;96341.34;4973605;28;20094;-57
2021/11/13 05:27:51;;;;;;;29.13;16.40;;;;;;;6.75;100.00;96346.75;4993997;28;20070;-59
2021/11/13 05:30:21;;;;;;;30.85;15.65;;;;;;;6.41;100.00;96346.81;4988223;28;20078;-58
2021/11/13 05:32:52;;;;;;;28.15;16.90;;;;;;;6.51;100.00;96343.47;4988488;28;20066;-52
2021/11/13 05:35:21;;;;;;;26.73;15.77;;;;;;;6.49;100.00;96348.00;4988298;28;20078;-53
2021/11/13 05:37:51;;;;;;;36.60;17.73;;;;;;;6.31;100.00;96347.66;4993819;28;20096;-55
2021/11/13 05:40:19;;;;;;;33.30;16.88;;;;;;;6.38;100.00;96341.81;5002093;28;20476;-52
2021/11/13 05:42:52;;;;;;;30.55;16.33;;;;;;;6.40;100.00;96342.53;4996620;28;20081;-57
2021/11/13 05:45:21;;;;;;;36.40;16.02;;;;;;;6.56;100.00;96343.91;4999101;28;20073;-59
2021/11/13 05:47:51;;;;;;;29.02;17.15;;;;;;;6.51;100.00;96340.84;4996320;28;20460;-57
2021/11/13 05:50:20;;;;;;;25.98;16.02;;;;;;;6.53;100.00;96336.31;4999289;28;20058;-55
2021/11/13 05:52:50;;;;;;;29.45;17.10;;;;;;;6.54;100.00;96344.06;4989505;28;20081;-52
2021/11/13 05:55:19;;;;;;;28.88;16.85;;;;;;;6.57;100.00;96340.34;4999218;28;20090;-58
2021/11/13 05:57:48;;;;;;;27.08;15.90;;;;;;;6.30;100.00;96357.31;5001486;28;20107;-58
2021/11/13 06:00:18;;;;;;;28.25;16.85;;;;;;;6.20;100.00;96343.28;4995709;28;20073;-57
2021/11/13 06:02:47;;;;;;;26.75;16.35;;;;;;;6.14;100.00;96346.38;4992247;28;20073;-55
2021/11/13 06:05:17;;;;;;;27.30;16.35;;;;;;;6.56;100.00;96341.31;4987835;28;20144;-57
2021/11/13 06:07:46;;;;;;;28.48;17.23;;;;;;;6.09;100.00;96344.13;4973736;28;20464;-57
2021/11/13 06:10:17;;;;;;;26.58;16.60;;;;;;;6.78;100.00;96349.13;4979812;28;20077;-52
2021/11/13 06:12:46;;;;;;;29.83;17.05;;;;;;;6.59;100.00;96351.53;4971114;28;20441;-54
2021/11/13 06:15:14;;;;;;;32.22;17.30;;;;;;;6.78;100.00;96349.13;4986467;28;20080;-61
2021/11/13 06:17:43;;;;;;;31.25;17.95;;;;;;;6.62;100.00;96351.28;4985697;28;20533;-60
2021/11/13 06:20:12;;;;;;;34.28;18.42;;;;;;;6.65;100.00;96345.81;4972947;28;20078;-60
2021/11/13 06:22:43;;;;;;;32.10;17.73;;;;;;;6.62;100.00;96343.44;4990339;28;20512;-61
2021/11/13 06:25:12;;;;;;;31.23;17.40;;;;;;;6.68;100.00;96344.75;4989413;28;20078;-61
2021/11/13 06:27:41;;;;;;;30.13;16.67;;;;;;;6.78;100.00;96343.88;4987151;28;20080;-62
2021/11/13 06:30:12;;;;;;;35.08;17.33;;;;;;;6.85;100.00;96349.47;4992948;28;20073;-61
2021/11/13 06:32:41;;;;;;;32.88;16.80;;;;;;;6.70;100.00;96353.28;4992799;28;20081;-61
2021/11/13 06:35:11;;;;;;;32.88;16.83;;;;;;;6.97;100.00;96358.09;4988092;28;20079;-61
2021/11/13 06:37:41;;;;;;;33.05;16.10;;;;;;;6.41;100.00;96356.47;4987002;28;20086;-61
2021/11/13 06:40:11;;;;;;;30.45;16.48;;;;;;;6.35;100.00;96363.00;4993643;28;20476;-58
2021/11/13 06:42:41;;;;;;;27.52;15.30;;;;;;;6.32;100.00;96368.47;4987457;28;20093;-61
2021/11/13 06:45:11;;;;;;;34.88;16.33;;;;;;;6.41;100.00;96373.00;5000823;28;20441;-61
2021/11/13 06:47:41;;;;;;;39.80;17.10;;;;;;;6.22;100.00;96379.78;4990826;28;20081;-57
2021/11/13 06:50:11;;;;;;;33.83;17.23;;;;;;;6.65;100.00;96377.25;4990085;28;20500;-59
2021/11/13 06:52:40;;;;;;;30.55;16.98;;;;;;;6.55;100.00;96378.94;5001698;28;20554;-59
2021/11/13 06:55:10;;;;;;;31.10;16.98;;;;;;;6.11;100.00;96385.88;5005366;28;20484;-58
2021/11/13 06:57:39;;;;;;;25.95;16.23;;;;;;;6.21;100.00;96391.22;4990127;28;20074;-61
2021/11/13 07:00:10;;;;;;;29.35;16.85;;;;;;;6.35;100.00;96386.56;4990059;28;20062;-61
2021/11/13 07:02:39;;;;;;;31.83;17.15;;;;;;;6.75;100.00;96386.03;4990122;28;20539;-58
2021/11/13 07:05:09;;;;;;;31.13;17.23;;;;;;;6.93;100.00;96386.34;4990476;28;20066;-58
2021/11/13 07:07:38;;;;;;;31.05;17.95;;;;;;;6.79;100.00;96386.63;4990200;28;20571;-62
2021/11/13 07:10:11;;;;;;;29.15;17.10;;;;;;;7.06;100.00;96384.41;4992541;28;20482;-61
2021/11/13 07:12:40;;;;;;;29.05;16.92;;;;;;;6.88;100.00;96381.50;4990010;28;20077;-61
2021/11/13 07:15:10;;;;;;;29.60;17.25;;;;;;;7.26;100.00;96374.91;4990834;28;20066;-60
2021/11/13 07:17:39;;;;;;;32.10;17.97;;;;;;;7.48;100.00;96375.75;4995161;28;20077;-59
2021/11/13 07:20:09;;;;;;;33.63;18.50;;;;;;;7.58;100.00;96376.66;4989625;28;20073;-63
2021/11/13 07:22:39;;;;;;;33.92;18.23;;;;;;;7.98;100.00;96366.25;4989396;28;20086;-61
2021/11/13 07:25:13;;;;;;;37.08;18.50;;;;;;;7.84;100.00;96362.19;4992230;28;20057;-60
2021/11/13 07:27:44;;;;;;;40.20;17.50;;;;;;;7.31;100.00;96362.25;4989477;28;20062;-59
2021/11/13 07:30:15;;;;;;;27.58;17.08;;;;;;;7.16;100.00;96370.53;4992610;28;20449;-62
2021/11/13 07:32:44;;;;;;;30.33;16.70;;;;;;;7.28;100.00;96365.09;4990970;28;20069;-61
2021/11/13 07:35:12;;;;;;;32.55;17.85;;;;;;;6.96;100.00;96356.44;4997754;28;20070;-59
2021/11/13 07:37:41;;;;;;;27.50;17.20;;;;;;;6.80;100.00;96360.28;4991324;28;20086;-59
2021/11/13 07:40:12;;;;;;;30.88;17.92;;;;;;;7.24;100.00;96361.09;4998880;28;20081;-61
2021/11/13 07:42:40;;;;;;;;;;;;;;;6.89;100.00;96356.09;4992295;28;20492;-60
2021/11/13 07:45:09;;;;;;;97.70;31.27;;;;;;;7.42;100.00;96350.84;4993364;28;20370;-60
2021/11/13 07:47:41;;;;;;;31.90;17.65;;;;;;;7.49;100.00;96353.78;4999895;28;20176;-62
2021/11/13 07:50:11;;;;;;;30.27;18.15;;;;;;;7.57;100.00;96346.09;5012629;28;20077;-61
2021/11/13 07:52:40;;;;;;;33.92;18.90;;;;;;;7.79;100.00;96343.34;5005216;28;20046;-62
2021/11/13 07:55:08;;;;;;;31.65;17.55;;;;;;;7.87;100.00;96341.84;4991536;28;20081;-60
2021/11/13 07:57:38;;;;;;;29.30;16.52;;;;;;;7.58;100.00;96347.78;4991863;28;20084;-61
2021/11/13 08:00:09;;;;;;;31.75;17.98;;;;;;;7.83;100.00;96343.91;4990553;28;20066;-61
2021/11/13 08:02:38;;;;;;;32.65;18.23;;;;;;;8.06;100.00;96355.91;4991280;28;20073;-58
2021/11/13 08:05:08;;;;;;;34.10;18.83;;;;;;;8.07;100.00;96352.31;4994982;28;20061;-62
2021/11/13 08:07:36;;;;;;;30.98;17.83;;;;;;;7.91;100.00;96351.13;4988888;28;20537;-62
2021/11/13 08:10:06;;;;;;;30.35;17.67;;;;;;;8.13;100.00;96347.50;4997264;28;20082;-60
2021/11/13 08:12:35;;;;;;;29.10;17.77;;;;;;;8.54;100.00;96347.41;4988438;28;20088;-61
2021/11/13 08:15:06;;;;;;;31.02;17.38;;;;;;;8.33;100.00;96351.88;4988817;28;20074;-60
2021/11/13 08:17:35;;;;;;;33.92;17.15;;;;;;;8.27;100.00;96353.22;4995110;28;20066;-61
2021/11/13 08:20:05;;;;;;;28.70;16.40;;;;;;;8.12;100.00;96358.97;4988056;28;20177;-58
2021/11/13 08:22:34;;;;;;;30.90;17.27;;;;;;;8.69;100.00;96360.97;4990725;28;20095;-61
2021/11/13 08:25:03;;;;;;;30.77;16.52;;;;;;;8.17;100.00;96360.25;4988003;28;20531;-60
2021/11/13 08:27:32;;;;;;;26.05;16.15;;;;;;;8.44;100.00;96358.84;4995190;28;20080;-62
2021/11/13 08:30:00;;;;;;;29.27;16.88;;;;;;;8.01;100.00;96363.34;4995009;28;20069;-61
2021/11/13 08:32:30;;;;;;;26.05;15.13;;;;;;;8.69;100.00;96370.66;4989407;28;20062;-60
2021/11/13 08:34:59;;;;;;;29.50;16.60;;;;;;;8.67;100.00;96378.72;4992884;28;20073;-62
2021/11/13 08:37:28;;;;;;;30.25;16.63;;;;;;;8.37;100.00;96374.28;4990626;28;20476;-62
2021/11/13 08:39:58;;;;;;;24.60;15.05;;;;;;;8.40;100.00;96384.56;4996006;28;20057;-62
2021/11/13 08:42:26;;;;;;;21.77;14.03;;;;;;;8.23;100.00;96395.66;4991082;28;20089;-59
2021/11/13 08:44:55;;;;;;;18.73;12.68;;;;;;;7.94;100.00;96387.63;4994603;28;20485;-61
2021/11/13 08:47:23;;;;;;;20.77;11.80;;;;;;;8.01;100.00;96388.78;4999473;28;20070;-54
2021/11/13 08:49:56;;;;;;;21.33;14.43;;;;;;;8.15;100.00;96387.59;4993069;28;20086;-57
2021/11/13 08:52:24;;;;;;;22.95;14.18;;;;;;;8.86;100.00;96384.97;4990247;28;20089;-61
2021/11/13 08:54:53;;;;;;;21.05;13.05;;;;;;;8.71;100.00;96385.34;4987856;28;20073;-60
2021/11/13 08:57:21;;;;;;;20.05;13.10;;;;;;;8.56;100.00;96391.94;4973605;28;20353;-62
2021/11/13 08:59:50;;;;;;;21.75;13.98;;;;;;;8.20;100.00;96386.25;4978534;28;20081;-61
2021/11/13 09:02:22;;;;;;;22.10;12.98;;;;;;;8.21;100.00;96392.34;4983161;28;20085;-61
2021/11/13 09:04:51;;;;;;;20.52;12.07;;;;;;;8.03;100.00;96381.59;4969960;28;20042;-59
2021/11/13 09:07:22;;;;;;;20.35;12.77;;;;;;;8.13;100.00;96397.41;5008319;28;20073;-61
2021/11/13 09:09:51;;;;;;;20.85;13.85;;;;;;;8.22;100.00;96381.69;4988700;28;20460;-60
2021/11/13 09:12:25;;;;;;;18.80;13.10;;;;;;;7.99;100.00;96380.22;4988113;28;20061;-61
2021/11/13 09:14:55;;;;;;;18.88;13.32;;;;;;;8.42;100.00;96372.09;5000748;28;20452;-62
2021/11/13 09:17:24;;;;;;;22.03;13.90;;;;;;;8.45;100.00;96376.28;4987830;28;20062;-59
2021/11/13 09:19:53;;;;;;;19.98;13.27;;;;;;;7.97;100.00;96372.44;4992432;28;20894;-61
2021/11/13 09:22:22;;;;;;;24.17;13.98;;;;;;;8.01;100.00;96376.47;4996160;28;20084;-61
2021/11/13 09:24:51;;;;;;;20.27;13.63;;;;;;;8.03;100.00;96371.09;5005467;28;20057;-61
2021/11/13 09:27:19;;;;;;;19.98;14.50;;;;;;;8.02;100.00;96369.44;4987712;28;20061;-60
2021/11/13 09:29:51;;;;;;;19.48;13.18;;;;;;;8.25;100.00;96360.41;4991497;28;20061;-60
2021/11/13 09:32:19;;;;;;;19.77;13.73;;;;;;;8.76;100.00;96359.47;4999785;28;20436;-62
2021/11/13 09:34:48;;;;;;;21.05;14.13;;;;;;;8.62;100.00;96357.22;4999217;28;20073;-60
2021/11/13 09:37:17;;;;;;;22.83;15.77;;;;;;;8.50;100.00;96358.31;4995464;28;20685;-60
2021/11/13 09:39:47;;;;;;;20.63;14.00;;;;;;;9.28;100.00;96362.69;4988706;28;20146;-60
2021/11/13 09:42:15;;;;;;;21.90;14.82;;;;;;;8.91;100.00;96359.06;5005982;28;20487;-62
2021/11/13 09:44:44;;;;;;;19.05;13.10;;;;;;;9.09;100.00;96367.97;4987582;28;20066;-62
2021/11/13 09:47:13;;;;;;;20.00;13.43;;;;;;;9.10;100.00;96361.72;4987709;28;20062;-60
2021/11/13 09:49:42;;;;;;;19.98;13.70;;;;;;;9.14;100.00;96367.53;4986788;28;20078;-63
2021/11/13 09:52:13;;;;;;;20.85;13.70;;;;;;;9.81;100.00;96368.47;4998035;28;20081;-61
2021/11/13 09:54:43;;;;;;;18.10;12.88;;;;;;;9.73;100.00;96364.72;5003402;28;20060;-61
2021/11/13 09:57:13;;;;;;;19.65;13.25;;;;;;;9.68;100.00;96361.69;4991990;28;20074;-59
2021/11/13 09:59:42;;;;;;;18.15;12.70;;;;;;;9.69;100.00;96360.72;4998005;28;20543;-61
2021/11/13 10:02:10;;;;;;;17.52;13.27;;;;;;;9.49;100.00;96359.91;5001755;28;20042;-59
2021/11/13 10:04:40;;;;;;;21.95;14.13;;;;;;;9.54;100.00;96363.94;4987337;28;20100;-60
2021/11/13 10:07:09;;;;;;;18.20;13.10;;;;;;;9.23;100.00;96370.19;4992187;28;20550;-63
2021/11/13 10:09:37;;;;;;;18.27;13.57;;;;;;;8.70;100.00;96369.69;5004269;28;20467;-60
2021/11/13 10:12:07;;;;;;;19.23;14.00;;;;;;;9.94;100.00;96361.06;4987422;28;20074;-61
2021/11/13 10:14:39;;;;;;;20.87;14.30;;;;;;;9.81;100.00;96352.66;4987317;28;20058;-61
2021/11/13 10:17:18;;;;;;;21.35;13.23;;;;;;;9.87;100.00;96347.63;4999271;28;20068;-62
2021/11/13 10:19:47;;;;;;;17.23;13.43;;;;;;;10.26;100.00;96349.38;4990413;28;20085;-60
2021/11/13 10:22:16;;;;;;;18.15;13.25;;;;;;;9.68;100.00;96350.34;4998126;28;20081;-62
2021/11/13 10:24:46;;;;;;;16.85;12.85;;;;;;;10.05;100.00;96350.38;4992451;28;20076;-60
2021/11/13 10:27:15;;;;;;;17.83;13.07;;;;;;;9.94;100.00;96356.66;4990954;28;20062;-57
2021/11/13 10:29:47;;;;;;;16.15;12.82;;;;;;;9.78;100.00;96353.78;4997900;28;20486;-57
2021/11/13 10:32:19;;;;;;;18.02;12.85;;;;;;;9.72;100.00;96355.16;5005373;28;20058;-62
2021/11/13 10:34:49;;;;;;;17.63;12.98;;;;;;;9.34;100.00;96356.06;4995431;28;20520;-61
2021/11/13 10:37:18;;;;;;;;;;;;;;;9.81;100.00;96358.75;5010672;28;20081;-57
2021/11/13 10:39:48;;;;;;;17.38;11.98;;;;;;;9.42;100.00;96356.16;5003675;28;20387;-61
2021/11/13 10:42:18;;;;;;;17.52;12.93;;;;;;;9.56;100.00;96359.34;4990375;28;20460;-59
2021/11/13 10:44:50;;;;;;;18.85;12.57;;;;;;;9.75;100.00;96359.31;4990155;28;20058;-61
2021/11/13 10:47:20;;;;;;;16.63;11.82;;;;;;;9.83;100.00;96354.16;4990595;28;20066;-60
2021/11/13 10:49:50;;;;;;;;;;;;;;;9.66;100.00;96352.25;4991202;28;20491;-62
2021/11/13 10:52:20;;;;;;;18.25;12.38;;;;;;;9.86;100.00;96353.88;4994557;28;20380;-62
2021/11/13 10:54:51;;;;;;;16.58;12.23;;;;;;;10.19;100.00;96347.25;4999164;28;20069;-62
2021/11/13 10:57:26;;;;;;;17.40;13.07;;;;;;;9.46;100.00;96346.19;5005732;28;20073;-63
2021/11/13 10:59:56;;;;;;;16.90;12.57;;;;;;;9.96;100.00;96345.97;4996741;28;20073;-59
2021/11/13 11:02:25;;;;;;;16.10;12.07;;;;;;;9.40;100.00;96339.72;4998588;28;20070;-60
2021/11/13 11:04:53;;;;;;;18.08;12.85;;;;;;;9.40;100.00;96346.78;4999706;28;20555;-61
2021/11/13 11:07:26;;;;;;;15.65;12.15;;;;;;;9.50;100.00;96342.34;4992522;28;20524;-57
2021/11/13 11:10:03;;;;;;;18.40;13.73;;;;;;;10.13;100.00;96345.22;4989786;28;20105;-57
2021/11/13 11:12:34;;;;;;;17.73;12.77;;;;;;;10.49;100.00;96333.97;4995515;28;20500;-61
2021/11/13 11:15:09;;;;;;;18.70;12.88;;;;;;;10.15;100.00;96335.38;4991794;28;20566;-61
2021/11/13 11:17:38;;;;;;;18.13;13.25;;;;;;;10.19;100.00;96336.72;4989511;28;20456;-60
2021/11/13 11:20:09;;;;;;;17.55;12.93;;;;;;;10.80;100.00;96335.31;4989160;28;20081;-63
2021/11/13 11:22:37;;;;;;;17.10;13.27;;;;;;;10.72;100.00;96337.88;4995475;28;20082;-60
2021/11/13 11:25:09;;;;;;;18.67;13.18;;;;;;;10.16;100.00;96344.09;4992191;28;20086;-60
2021/11/13 11:27:39;;;;;;;17.02;13.65;;;;;;;10.39;100.00;96341.91;4993268;28;20077;-61